Arland, Wisconsin
Current Conditions -  °F | °C
As of 5:15 PM on Thursday 27 Nov 2014 (Local Time) from KUBE Reporting Station
Clear Clear  
Wind Chill: -6°   Ceiling: Unl
Heat Index:   Visibility: 10mi
Dew Point: -6°   Wind: 5mph
Humidity: 66%   Direction: 210°SSW
Pressure: 30.36"   Gusts: NA
Location:  45.3064°N, 92.1345°W
Report Text: KUBE 272315Z AUTO 21004KT 10SM CLR M16/M21 A3036 RMK AO2
Loading
Personal Weather Stations






























Interactive Weather Map New forecast layout! Learn more

10-Day Weather Forecast

Advertisements
Track Severe Weather on mobile